createdAt,value
2022-09-17T00:01:02.641Z,10.7
2022-09-17T00:03:29.210Z,10.6
2022-09-17T00:05:55.880Z,10.5
2022-09-17T00:08:22.566Z,10.5
2022-09-17T00:13:15.669Z,10.3
2022-09-17T00:15:42.293Z,10.3
2022-09-17T00:18:09.047Z,10.2
2022-09-17T00:20:35.658Z,10.2
2022-09-17T00:23:02.251Z,10.2
2022-09-17T00:25:28.912Z,10.2
2022-09-17T00:27:55.496Z,10.2
2022-09-17T00:30:20.583Z,10.2
2022-09-17T00:32:47.156Z,10.3
2022-09-17T00:35:13.775Z,10.3
2022-09-17T00:37:40.411Z,10.4
2022-09-17T00:40:07.032Z,10.4
2022-09-17T00:42:33.765Z,10.3
2022-09-17T00:45:00.379Z,10.4
2022-09-17T00:47:27.034Z,10.4
2022-09-17T00:49:53.600Z,10.4
2022-09-17T00:52:20.151Z,10.4
2022-09-17T00:54:46.770Z,10.5
2022-09-17T00:57:13.519Z,10.5
2022-09-17T00:59:40.012Z,10.5
2022-09-17T01:02:05.282Z,10.5
2022-09-17T01:04:31.892Z,10.5
2022-09-17T01:06:58.440Z,10.4
2022-09-17T01:09:25.165Z,10.5
2022-09-17T01:11:51.783Z,10.5
2022-09-17T01:14:18.252Z,10.5
2022-09-17T01:16:44.946Z,10.5
2022-09-17T01:19:11.606Z,10.4
2022-09-17T01:21:38.262Z,10.4
2022-09-17T01:26:31.477Z,10.4
2022-09-17T01:28:58.128Z,10.3
2022-09-17T01:31:24.604Z,10.4
2022-09-17T01:33:49.856Z,10.3
2022-09-17T01:36:16.452Z,10.4
2022-09-17T01:38:43.152Z,10.4
2022-09-17T01:41:09.745Z,10.5
2022-09-17T01:43:36.365Z,10.5
2022-09-17T01:46:02.846Z,10.6
2022-09-17T01:48:29.620Z,10.6
2022-09-17T01:50:56.225Z,10.6
2022-09-17T01:53:22.818Z,10.6
2022-09-17T01:55:49.454Z,10.6
2022-09-17T01:58:16.021Z,10.6
2022-09-17T02:00:42.660Z,10.6
2022-09-17T02:03:09.225Z,10.6
2022-09-17T02:05:35.970Z,10.7
2022-09-17T02:08:02.459Z,10.7
2022-09-17T02:10:29.210Z,10.7
2022-09-17T02:12:54.269Z,10.8
2022-09-17T02:15:20.937Z,10.7
2022-09-17T02:17:47.553Z,10.8
2022-09-17T02:20:14.139Z,10.7
2022-09-17T02:22:40.708Z,10.7
2022-09-17T02:25:07.419Z,10.7
2022-09-17T02:27:34.063Z,10.6
2022-09-17T02:30:00.599Z,10.5
2022-09-17T02:32:27.314Z,10.5
2022-09-17T02:34:53.971Z,10.4
2022-09-17T02:37:20.451Z,10.3
2022-09-17T02:39:47.190Z,10.3
2022-09-17T02:42:13.685Z,10.2
2022-09-17T02:44:38.944Z,10.1
2022-09-17T02:47:05.536Z,10.1
2022-09-17T02:49:32.187Z,10
2022-09-17T02:51:58.788Z,9.9
2022-09-17T02:54:25.426Z,9.9
2022-09-17T02:56:52.010Z,9.9
2022-09-17T02:59:18.552Z,9.8
2022-09-17T03:01:45.309Z,9.8
2022-09-17T03:04:11.921Z,9.9
2022-09-17T03:06:38.509Z,9.8
2022-09-17T03:09:05.100Z,9.8
2022-09-17T03:11:31.729Z,9.8
2022-09-17T03:13:58.298Z,9.8
2022-09-17T03:16:23.524Z,9.8
2022-09-17T03:18:50.037Z,9.8
2022-09-17T03:23:43.373Z,9.8
2022-09-17T03:28:36.653Z,9.8
2022-09-17T03:31:03.290Z,9.9
2022-09-17T03:33:29.768Z,9.9
2022-09-17T03:35:56.501Z,10
2022-09-17T03:38:23.070Z,10
2022-09-17T03:40:49.736Z,10
2022-09-17T03:43:16.264Z,10
2022-09-17T03:45:42.890Z,10.1
2022-09-17T03:48:08.019Z,10.1
2022-09-17T03:50:34.774Z,10.1
2022-09-17T03:53:01.383Z,10.1
2022-09-17T03:55:26.531Z,10.1
2022-09-17T03:57:53.114Z,10.1
2022-09-17T04:00:19.633Z,10.1
2022-09-17T04:02:46.344Z,10.1
2022-09-17T04:05:12.924Z,10.1
2022-09-17T04:07:39.504Z,10.1
2022-09-17T04:10:06.209Z,10.1
2022-09-17T04:12:32.821Z,10.1
2022-09-17T04:14:59.547Z,10.1
2022-09-17T04:17:26.134Z,10.1
2022-09-17T04:22:19.242Z,10.1
2022-09-17T04:24:45.934Z,10.2
2022-09-17T04:27:11.086Z,10.2
2022-09-17T04:29:37.619Z,10.2
2022-09-17T04:32:04.236Z,10.3
2022-09-17T04:34:30.963Z,10.3
2022-09-17T04:36:57.619Z,10.3
2022-09-17T04:39:24.220Z,10.3
2022-09-17T04:41:50.824Z,10.3
2022-09-17T04:44:17.471Z,10.4
2022-09-17T04:46:44.084Z,10.3
2022-09-17T04:49:10.743Z,10.3
2022-09-17T04:51:37.293Z,10.4
2022-09-17T04:54:03.919Z,10.4
2022-09-17T04:56:30.467Z,10.4
2022-09-17T04:58:55.590Z,10.4
2022-09-17T05:01:22.221Z,10.4
2022-09-17T05:03:48.965Z,10.4
2022-09-17T05:06:15.475Z,10.4
2022-09-17T05:08:42.194Z,10.4
2022-09-17T05:11:08.851Z,10.5
2022-09-17T05:13:35.474Z,10.5
2022-09-17T05:18:28.721Z,10.5
2022-09-17T05:20:55.317Z,10.5
2022-09-17T05:23:21.948Z,10.5
2022-09-17T05:25:48.441Z,10.6
2022-09-17T05:28:15.142Z,10.5
2022-09-17T05:30:41.790Z,10.6
2022-09-17T05:33:06.830Z,10.6
2022-09-17T05:35:33.536Z,10.6
2022-09-17T05:38:00.061Z,10.6
2022-09-17T05:40:26.724Z,10.6
2022-09-17T05:42:53.390Z,10.6
2022-09-17T05:45:19.945Z,10.6
2022-09-17T05:47:46.709Z,10.6
2022-09-17T05:50:13.252Z,10.6
2022-09-17T05:52:39.915Z,10.6
2022-09-17T05:55:06.427Z,10.6
2022-09-17T05:57:33.185Z,10.7
2022-09-17T05:59:59.783Z,10.7
2022-09-17T06:02:26.411Z,10.7
2022-09-17T06:04:51.534Z,10.7
2022-09-17T06:07:18.179Z,10.7
2022-09-17T06:09:44.662Z,10.7
2022-09-17T06:12:11.401Z,10.7
2022-09-17T06:14:38.013Z,10.8
2022-09-17T06:17:04.541Z,10.9
2022-09-17T06:19:31.271Z,10.9
2022-09-17T06:21:57.786Z,11
2022-09-17T06:24:24.446Z,10.9
2022-09-17T06:26:51.152Z,10.9
2022-09-17T06:29:17.728Z,10.9
2022-09-17T06:31:44.408Z,10.9
2022-09-17T06:34:10.894Z,10.8
2022-09-17T06:36:37.653Z,10.8
2022-09-17T06:39:02.638Z,10.8
2022-09-17T06:41:29.274Z,10.8
2022-09-17T06:43:55.965Z,10.8
2022-09-17T06:48:49.139Z,10.8
2022-09-17T06:51:15.780Z,10.8
2022-09-17T06:53:42.451Z,10.9
2022-09-17T06:56:09.017Z,10.9
2022-09-17T06:58:35.637Z,10.9
2022-09-17T07:03:28.866Z,10.9
2022-09-17T07:05:55.491Z,11
2022-09-17T07:08:22.110Z,11
2022-09-17T07:10:47.238Z,11
2022-09-17T07:13:13.862Z,11
2022-09-17T07:18:07.114Z,11
2022-09-17T07:20:32.235Z,11
2022-09-17T07:22:57.377Z,11
2022-09-17T07:25:23.988Z,11
2022-09-17T07:27:50.626Z,11
2022-09-17T07:30:17.243Z,11
2022-09-17T07:32:43.857Z,10.9
2022-09-17T07:35:10.555Z,10.8
2022-09-17T07:37:37.125Z,10.7
2022-09-17T07:40:03.722Z,10.6
2022-09-17T07:42:30.374Z,10.6
2022-09-17T07:44:56.989Z,10.6
2022-09-17T07:47:22.097Z,10.6
2022-09-17T07:49:47.242Z,10.5
2022-09-17T07:52:13.858Z,10.5
2022-09-17T07:54:40.476Z,10.6
2022-09-17T07:57:07.107Z,10.6
2022-09-17T07:59:33.730Z,10.6
2022-09-17T08:02:00.347Z,10.7
2022-09-17T08:04:27.003Z,10.7
2022-09-17T08:06:53.598Z,10.6
2022-09-17T08:09:20.216Z,10.5
2022-09-17T08:11:46.841Z,10.5
2022-09-17T08:14:13.477Z,10.4
2022-09-17T08:16:40.079Z,10.4
2022-09-17T08:19:06.726Z,10.4
2022-09-17T08:21:31.831Z,10.5
2022-09-17T08:23:58.453Z,10.5
2022-09-17T08:26:25.078Z,10.5
2022-09-17T08:28:51.715Z,10.5
2022-09-17T08:33:44.984Z,10.6
2022-09-17T08:36:11.606Z,10.7
2022-09-17T08:38:38.204Z,10.7
2022-09-17T08:41:04.814Z,10.8
2022-09-17T08:45:58.063Z,10.9
2022-09-17T08:48:24.686Z,11
2022-09-17T08:50:51.310Z,11.1
2022-09-17T08:53:16.438Z,11.1
2022-09-17T08:55:43.122Z,11.1
2022-09-17T09:00:36.312Z,11.3
2022-09-17T09:03:01.447Z,11.4
2022-09-17T09:05:26.564Z,11.6
2022-09-17T09:07:53.201Z,11.8
2022-09-17T09:10:19.799Z,11.9
2022-09-17T09:15:13.056Z,12.2
2022-09-17T09:17:39.704Z,12.3
2022-09-17T09:22:32.920Z,12.3
2022-09-17T09:24:59.547Z,12.1
2022-09-17T09:27:26.171Z,12.1
2022-09-17T09:29:52.792Z,12.3
2022-09-17T09:32:19.423Z,12.5
2022-09-17T09:34:46.040Z,12.7
2022-09-17T09:37:12.658Z,12.5
2022-09-17T09:39:39.296Z,12.3
2022-09-17T09:42:04.415Z,12.2
2022-09-17T09:46:56.183Z,12.5
2022-09-17T09:49:22.782Z,12.9
2022-09-17T09:51:49.502Z,13.1
2022-09-17T09:54:16.099Z,13
2022-09-17T09:56:42.812Z,12.8
2022-09-17T09:59:09.280Z,12.7
2022-09-17T10:01:35.946Z,12.7
2022-09-17T10:04:02.555Z,13.4
2022-09-17T10:06:29.201Z,13.5
2022-09-17T10:08:55.759Z,13.4
2022-09-17T10:11:20.907Z,13.1
2022-09-17T10:13:46.030Z,13
2022-09-17T10:16:12.650Z,13.2
2022-09-17T10:18:39.270Z,13.5
2022-09-17T10:21:05.903Z,13.6
2022-09-17T10:23:32.522Z,13.8
2022-09-17T10:25:59.150Z,13.8
2022-09-17T10:28:25.862Z,13.6
2022-09-17T10:30:52.486Z,13.7
2022-09-17T10:35:45.633Z,13.8
2022-09-17T10:38:12.267Z,14.1
2022-09-17T10:40:38.885Z,14.8
2022-09-17T10:43:05.501Z,15.1
2022-09-17T10:45:30.632Z,15.3
2022-09-17T10:47:57.261Z,15.8
2022-09-17T10:50:23.875Z,15.5
2022-09-17T10:52:50.510Z,15.4
2022-09-17T10:55:17.158Z,15.4
2022-09-17T10:57:43.746Z,15
2022-09-17T11:00:10.373Z,14.8
2022-09-17T11:02:37.003Z,14.9
2022-09-17T11:05:03.617Z,15.2
2022-09-17T11:07:30.231Z,15.6
2022-09-17T11:09:55.376Z,16.1
2022-09-17T11:12:21.991Z,16.6
2022-09-17T11:14:48.613Z,16.6
2022-09-17T11:17:13.839Z,16.7
2022-09-17T11:19:40.367Z,17.1
2022-09-17T11:22:06.987Z,17.3
2022-09-17T11:24:33.606Z,16.8
2022-09-17T11:27:00.223Z,16.6
2022-09-17T11:29:26.852Z,16.8
2022-09-17T11:31:53.487Z,16.4
2022-09-17T11:34:20.092Z,16.1
2022-09-17T11:36:46.722Z,16
2022-09-17T11:39:13.343Z,16.2
2022-09-17T11:41:39.964Z,16.1
2022-09-17T11:44:06.578Z,16
2022-09-17T11:46:33.218Z,16.3
2022-09-17T11:48:59.846Z,16.3
2022-09-17T11:51:24.959Z,15.9
2022-09-17T11:53:51.591Z,15.7
2022-09-17T11:56:18.221Z,15.5
2022-09-17T11:58:44.856Z,15.5
2022-09-17T12:01:11.449Z,15.6
2022-09-17T12:03:38.068Z,15.5
2022-09-17T12:06:03.236Z,15.3
2022-09-17T12:08:29.834Z,14.9
2022-09-17T12:10:56.456Z,14.6
2022-09-17T12:13:23.104Z,14.6
2022-09-17T12:15:49.696Z,15
2022-09-17T12:18:16.323Z,15.3
2022-09-17T12:20:42.942Z,15.4
2022-09-17T12:23:09.561Z,15.5
2022-09-17T12:25:36.195Z,15.4
2022-09-17T12:28:02.815Z,15.3
2022-09-17T12:30:29.443Z,15.3
2022-09-17T12:32:56.045Z,15.7
2022-09-17T12:35:22.682Z,16.1
2022-09-17T12:37:47.811Z,16.3
2022-09-17T12:40:14.421Z,16.6
2022-09-17T12:42:41.044Z,16.6
2022-09-17T12:45:07.671Z,16.5
2022-09-17T12:47:34.293Z,16.1
2022-09-17T12:50:00.914Z,16.1
2022-09-17T12:54:54.162Z,15.4
2022-09-17T12:57:20.822Z,14.9
2022-09-17T12:59:47.402Z,14.9
2022-09-17T13:02:14.030Z,15.2
2022-09-17T13:04:40.653Z,15.4
2022-09-17T13:07:07.296Z,15.7
2022-09-17T13:09:32.526Z,15.9
2022-09-17T13:11:59.166Z,16.3
2022-09-17T13:14:25.781Z,16.2
2022-09-17T13:16:52.385Z,16
2022-09-17T13:19:18.888Z,15.5
2022-09-17T13:21:45.647Z,15.4
2022-09-17T13:24:12.292Z,15.5
2022-09-17T13:26:38.903Z,15.3
2022-09-17T13:29:05.514Z,15.2
2022-09-17T13:31:32.059Z,15
2022-09-17T13:33:58.618Z,14.8
2022-09-17T13:36:25.386Z,14.6
2022-09-17T13:38:52.018Z,14.5
2022-09-17T13:41:17.136Z,14.6
2022-09-17T13:43:43.760Z,14.9
2022-09-17T13:46:10.257Z,15.2
2022-09-17T13:48:37.018Z,15.3
2022-09-17T13:51:03.628Z,15.3
2022-09-17T13:53:30.249Z,15.3
2022-09-17T13:55:56.730Z,15.1
2022-09-17T13:58:23.365Z,15.2
2022-09-17T14:00:50.126Z,15.2
2022-09-17T14:03:16.765Z,15.1
2022-09-17T14:05:43.231Z,15.1
2022-09-17T14:08:09.959Z,15
2022-09-17T14:10:36.616Z,15.2
2022-09-17T14:13:03.156Z,15.1
2022-09-17T14:15:28.212Z,15.2
2022-09-17T14:17:54.834Z,15.1
2022-09-17T14:20:21.590Z,14.9
2022-09-17T14:22:48.164Z,14.8
2022-09-17T14:25:14.715Z,14.7
2022-09-17T14:27:41.467Z,14.6
2022-09-17T14:30:08.087Z,14.7
2022-09-17T14:32:34.711Z,14.6
2022-09-17T14:35:01.329Z,14.6
2022-09-17T14:37:27.961Z,14.7
2022-09-17T14:39:54.583Z,14.9
2022-09-17T14:42:21.175Z,14.9
2022-09-17T14:44:47.827Z,14.8
2022-09-17T14:47:14.453Z,15
2022-09-17T14:49:41.073Z,14.9
2022-09-17T14:52:07.716Z,14.9
2022-09-17T14:54:32.751Z,14.9
2022-09-17T14:56:59.456Z,15
2022-09-17T14:59:26.068Z,15.1
2022-09-17T15:01:52.714Z,15.1
2022-09-17T15:04:19.313Z,15
2022-09-17T15:06:45.933Z,14.7
2022-09-17T15:09:12.535Z,14.7
2022-09-17T15:11:39.194Z,14.7
2022-09-17T15:14:05.832Z,14.7
2022-09-17T15:16:32.417Z,14.9
2022-09-17T15:18:58.910Z,14.9
2022-09-17T15:21:25.671Z,14.8
2022-09-17T15:23:52.158Z,14.8
2022-09-17T15:26:17.434Z,14.8
2022-09-17T15:28:43.941Z,14.8
2022-09-17T15:31:10.649Z,14.9
2022-09-17T15:33:37.319Z,14.9
2022-09-17T15:36:03.917Z,14.8
2022-09-17T15:38:30.541Z,14.7
2022-09-17T15:40:57.021Z,14.9
2022-09-17T15:43:23.735Z,14.9
2022-09-17T15:48:16.976Z,14.6
2022-09-17T15:50:43.504Z,14.5
2022-09-17T15:53:10.219Z,14.4
2022-09-17T15:55:36.770Z,14.3
2022-09-17T15:58:01.871Z,14.2
2022-09-17T16:02:55.195Z,13.4
2022-09-17T16:05:21.870Z,13.1
2022-09-17T16:07:48.366Z,12.9
2022-09-17T16:10:15.046Z,12.9
2022-09-17T16:12:41.602Z,12.9
2022-09-17T16:15:08.338Z,13
2022-09-17T16:17:34.997Z,13
2022-09-17T16:20:01.668Z,13
2022-09-17T16:22:28.249Z,13
2022-09-17T16:24:54.841Z,12.9
2022-09-17T16:27:21.454Z,12.8
2022-09-17T16:29:46.479Z,12.8
2022-09-17T16:32:13.099Z,12.7
2022-09-17T16:34:39.845Z,12.7
2022-09-17T16:37:06.429Z,12.6
2022-09-17T16:39:33.058Z,12.6
2022-09-17T16:41:59.586Z,12.6
2022-09-17T16:44:26.231Z,12.6
2022-09-17T16:46:52.958Z,12.7
2022-09-17T16:49:19.514Z,12.8
2022-09-17T16:51:46.067Z,12.8
2022-09-17T16:54:12.723Z,12.8
2022-09-17T16:56:39.355Z,12.8
2022-09-17T16:59:06.045Z,12.8
2022-09-17T17:01:31.150Z,12.7
2022-09-17T17:03:57.823Z,12.7
2022-09-17T17:06:24.483Z,12.6
2022-09-17T17:08:51.069Z,12.6
2022-09-17T17:11:17.667Z,12.6
2022-09-17T17:13:44.359Z,12.6
2022-09-17T17:16:10.907Z,12.6
2022-09-17T17:18:37.454Z,12.6
2022-09-17T17:21:04.200Z,12.6
2022-09-17T17:23:30.772Z,12.6
2022-09-17T17:25:57.472Z,12.6
2022-09-17T17:28:23.920Z,12.6
2022-09-17T17:30:50.656Z,12.6
2022-09-17T17:33:17.239Z,12.6
2022-09-17T17:35:42.404Z,12.6
2022-09-17T17:38:09.028Z,12.6
2022-09-17T17:43:02.277Z,12
2022-09-17T17:47:55.436Z,11.4
2022-09-17T17:50:22.045Z,11.2
2022-09-17T17:52:48.671Z,11
2022-09-17T17:55:15.413Z,10.9
2022-09-17T17:57:41.901Z,10.9
2022-09-17T18:00:08.543Z,10.7
2022-09-17T18:05:01.863Z,10.7
2022-09-17T18:07:27.013Z,10.7
2022-09-17T18:09:52.080Z,10.6
2022-09-17T18:12:18.738Z,10.6
2022-09-17T18:17:12.004Z,10.5
2022-09-17T18:19:38.530Z,10.5
2022-09-17T18:22:05.153Z,10.6
2022-09-17T18:24:31.757Z,10.6
2022-09-17T18:26:58.529Z,10.6
2022-09-17T18:29:25.142Z,10.6
2022-09-17T18:31:51.740Z,10.6
2022-09-17T18:34:18.372Z,10.6
2022-09-17T18:36:44.874Z,10.6
2022-09-17T18:39:11.527Z,10.6
2022-09-17T18:41:36.757Z,10.7
2022-09-17T18:46:29.877Z,10.7
2022-09-17T18:48:56.594Z,10.7
2022-09-17T18:51:23.234Z,10.7
2022-09-17T18:53:48.301Z,10.7
2022-09-17T18:56:14.973Z,10.7
2022-09-17T18:58:40.112Z,10.7
2022-09-17T19:01:06.737Z,10.7
2022-09-17T19:03:33.367Z,10.7
2022-09-17T19:08:26.495Z,10.6
2022-09-17T19:10:53.235Z,10.6
2022-09-17T19:13:19.780Z,10.5
2022-09-17T19:15:46.357Z,10.5
2022-09-17T19:18:13.091Z,10.5
2022-09-17T19:20:39.709Z,10.5
2022-09-17T19:25:32.966Z,10.5
2022-09-17T19:27:59.614Z,10.5
2022-09-17T19:30:26.203Z,10.5
2022-09-17T19:32:52.772Z,10.5
2022-09-17T19:35:17.987Z,10.5
2022-09-17T19:37:44.604Z,10.6
2022-09-17T19:40:11.492Z,10.5
2022-09-17T19:42:37.768Z,10.5
2022-09-17T19:45:04.451Z,10.4
2022-09-17T19:47:31.051Z,10.3
2022-09-17T19:49:57.731Z,10.3
2022-09-17T19:52:24.317Z,10.1
2022-09-17T19:54:50.964Z,10.1
2022-09-17T19:57:17.564Z,9.9
2022-09-17T19:59:44.093Z,9.9
2022-09-17T20:02:09.354Z,9.8
2022-09-17T20:04:34.468Z,9.8
2022-09-17T20:07:00.964Z,9.7
2022-09-17T20:09:27.682Z,9.6
2022-09-17T20:11:54.346Z,9.6
2022-09-17T20:14:20.964Z,9.5
2022-09-17T20:16:47.551Z,9.4
2022-09-17T20:19:12.593Z,9.4
2022-09-17T20:21:39.343Z,9.3
2022-09-17T20:24:05.983Z,9.3
2022-09-17T20:26:32.597Z,9.3
2022-09-17T20:28:57.665Z,9.3
2022-09-17T20:31:22.848Z,9.3
2022-09-17T20:33:49.326Z,9.3
2022-09-17T20:36:16.066Z,9.3
2022-09-17T20:38:42.683Z,9.4
2022-09-17T20:41:09.307Z,9.4
2022-09-17T20:43:35.860Z,9.5
2022-09-17T20:46:02.459Z,9.5
2022-09-17T20:48:29.164Z,9.6
2022-09-17T20:50:55.821Z,9.5
2022-09-17T20:53:22.358Z,9.5
2022-09-17T20:55:48.992Z,9.5
2022-09-17T20:58:15.635Z,9.5
2022-09-17T21:00:42.240Z,9.5
2022-09-17T21:03:08.912Z,9.5
2022-09-17T21:05:35.487Z,9.5
2022-09-17T21:12:53.794Z,9.4
2022-09-17T21:15:19.006Z,9.4
2022-09-17T21:17:44.058Z,9.5
2022-09-17T21:20:10.793Z,9.5
2022-09-17T21:22:37.321Z,9.4
2022-09-17T21:27:30.566Z,9.3
2022-09-17T21:29:57.186Z,9.3
2022-09-17T21:34:50.440Z,9.3
2022-09-17T21:37:17.050Z,9.3
2022-09-17T21:42:10.296Z,9.3
2022-09-17T21:44:36.920Z,9.3
2022-09-17T21:47:03.536Z,9.4
2022-09-17T21:51:55.296Z,9.4
2022-09-17T21:59:13.682Z,9.6
2022-09-17T22:01:38.813Z,9.5
2022-09-17T22:04:03.943Z,9.5
2022-09-17T22:06:30.556Z,9.4
2022-09-17T22:08:57.192Z,9.4
2022-09-17T22:11:23.800Z,9.4
2022-09-17T22:13:50.418Z,9.4
2022-09-17T22:16:17.061Z,9.4
2022-09-17T22:18:43.652Z,9.4
2022-09-17T22:21:10.282Z,9.4
2022-09-17T22:26:03.523Z,9.4
2022-09-17T22:28:30.151Z,9.4
2022-09-17T22:30:56.768Z,9.4
2022-09-17T22:33:23.393Z,9.4
2022-09-17T22:35:50.023Z,9.4
2022-09-17T22:38:15.162Z,9.4
2022-09-17T22:40:41.775Z,9.4
2022-09-17T22:43:08.395Z,9.4
2022-09-17T22:45:35.012Z,9.4
2022-09-17T22:48:01.642Z,9.5
2022-09-17T22:50:28.256Z,9.5
2022-09-17T22:52:54.889Z,9.5
2022-09-17T22:55:21.501Z,9.5
2022-09-17T22:57:46.650Z,9.5
2022-09-17T23:00:11.758Z,9.5
2022-09-17T23:02:38.377Z,9.5
2022-09-17T23:05:05.036Z,9.4
2022-09-17T23:09:58.263Z,9.5
2022-09-17T23:12:24.878Z,9.5
2022-09-17T23:14:51.498Z,9.4
2022-09-17T23:17:18.121Z,9.4
2022-09-17T23:19:44.757Z,9.4
2022-09-17T23:22:11.374Z,9.4
2022-09-17T23:24:37.998Z,9.4
2022-09-17T23:27:04.610Z,9.4
2022-09-17T23:29:31.238Z,9.5
2022-09-17T23:31:56.372Z,9.5
2022-09-17T23:34:22.991Z,9.5
2022-09-17T23:36:49.619Z,9.5
2022-09-17T23:39:16.245Z,9.5
2022-09-17T23:41:42.866Z,9.5
2022-09-17T23:44:09.496Z,9.5
2022-09-17T23:46:36.109Z,9.5
2022-09-17T23:49:02.732Z,9.5
2022-09-17T23:51:27.873Z,9.5
2022-09-17T23:53:54.502Z,9.5
2022-09-17T23:56:19.617Z,9.5
2022-09-17T23:58:46.223Z,9.5
